sensor_id;sensor_type;location;lat;lon;timestamp;temperature;humidity
56046;DHT22;41913;51.030;3.706;2022-10-17T00:01:09;15.20;99.90
56046;DHT22;41913;51.030;3.706;2022-10-17T00:03:40;15.30;99.90
56046;DHT22;41913;51.030;3.706;2022-10-17T00:06:10;15.30;99.90
56046;DHT22;41913;51.030;3.706;2022-10-17T00:11:35;15.30;99.90
56046;DHT22;41913;51.030;3.706;2022-10-17T00:14:04;15.20;99.90
56046;DHT22;41913;51.030;3.706;2022-10-17T00:16:37;15.30;99.90
56046;DHT22;41913;51.030;3.706;2022-10-17T00:19:06;15.30;99.90
56046;DHT22;41913;51.030;3.706;2022-10-17T00:21:32;15.30;99.90
56046;DHT22;41913;51.030;3.706;2022-10-17T00:23:59;15.40;99.90
56046;DHT22;41913;51.030;3.706;2022-10-17T00:26:27;15.40;99.90
56046;DHT22;41913;51.030;3.706;2022-10-17T00:29:01;15.40;99.90
56046;DHT22;41913;51.030;3.706;2022-10-17T00:31:30;15.80;99.90
56046;DHT22;41913;51.030;3.706;2022-10-17T00:33:55;15.50;99.90
56046;DHT22;41913;51.030;3.706;2022-10-17T00:36:23;15.60;99.90
56046;DHT22;41913;51.030;3.706;2022-10-17T00:38:55;15.60;99.90
56046;DHT22;41913;51.030;3.706;2022-10-17T00:41:26;15.70;99.90
56046;DHT22;41913;51.030;3.706;2022-10-17T00:44:03;15.50;99.90
56046;DHT22;41913;51.030;3.706;2022-10-17T00:46:43;15.80;99.90
56046;DHT22;41913;51.030;3.706;2022-10-17T00:49:25;15.80;99.90
56046;DHT22;41913;51.030;3.706;2022-10-17T00:51:59;15.80;99.90
56046;DHT22;41913;51.030;3.706;2022-10-17T00:54:38;15.80;99.90
56046;DHT22;41913;51.030;3.706;2022-10-17T00:57:07;15.80;99.90
56046;DHT22;41913;51.030;3.706;2022-10-17T00:59:47;15.80;99.90
56046;DHT22;41913;51.030;3.706;2022-10-17T01:02:17;15.80;99.90
56046;DHT22;41913;51.030;3.706;2022-10-17T01:04:54;15.80;99.90
56046;DHT22;41913;51.030;3.706;2022-10-17T01:07:24;15.90;99.90
56046;DHT22;41913;51.030;3.706;2022-10-17T01:09:52;16.00;99.90
56046;DHT22;41913;51.030;3.706;2022-10-17T01:15:02;15.90;99.90
56046;DHT22;41913;51.030;3.706;2022-10-17T01:20:31;15.90;99.90
56046;DHT22;41913;51.030;3.706;2022-10-17T01:37:05;16.00;99.90
56046;DHT22;41913;51.030;3.706;2022-10-17T01:45:14;16.10;99.90
56046;DHT22;41913;51.030;3.706;2022-10-17T01:47:45;16.10;99.90
56046;DHT22;41913;51.030;3.706;2022-10-17T01:50:17;16.10;99.90
56046;DHT22;41913;51.030;3.706;2022-10-17T02:06:46;16.10;99.90
56046;DHT22;41913;51.030;3.706;2022-10-17T02:09:17;16.10;99.90
56046;DHT22;41913;51.030;3.706;2022-10-17T02:11:51;16.10;99.90
56046;DHT22;41913;51.030;3.706;2022-10-17T02:19:49;16.10;99.90
56046;DHT22;41913;51.030;3.706;2022-10-17T02:34:08;16.10;99.90
56046;DHT22;41913;51.030;3.706;2022-10-17T02:42:33;16.20;99.90
56046;DHT22;41913;51.030;3.706;2022-10-17T02:45:03;16.10;99.90
56046;DHT22;41913;51.030;3.706;2022-10-17T02:50:26;16.10;99.90
56046;DHT22;41913;51.030;3.706;2022-10-17T02:55:59;16.30;99.90
56046;DHT22;41913;51.030;3.706;2022-10-17T02:58:31;16.40;99.90
56046;DHT22;41913;51.030;3.706;2022-10-17T03:01:12;16.50;99.90
56046;DHT22;41913;51.030;3.706;2022-10-17T03:03:39;16.50;99.90
56046;DHT22;41913;51.030;3.706;2022-10-17T03:06:07;16.60;99.90
56046;DHT22;41913;51.030;3.706;2022-10-17T03:11:28;16.60;99.90
56046;DHT22;41913;51.030;3.706;2022-10-17T03:13:54;16.80;99.90
56046;DHT22;41913;51.030;3.706;2022-10-17T03:16:20;16.80;99.90
56046;DHT22;41913;51.030;3.706;2022-10-17T03:19:01;16.80;99.90
56046;DHT22;41913;51.030;3.706;2022-10-17T03:21:29;16.70;99.90
56046;DHT22;41913;51.030;3.706;2022-10-17T03:26:26;16.60;99.90
56046;DHT22;41913;51.030;3.706;2022-10-17T03:28:55;16.50;99.90
56046;DHT22;41913;51.030;3.706;2022-10-17T03:31:24;16.50;99.90
56046;DHT22;41913;51.030;3.706;2022-10-17T03:33:50;16.50;99.90
56046;DHT22;41913;51.030;3.706;2022-10-17T03:38:47;16.40;99.90
56046;DHT22;41913;51.030;3.706;2022-10-17T03:41:13;16.40;99.90
56046;DHT22;41913;51.030;3.706;2022-10-17T03:43:42;16.40;99.90
56046;DHT22;41913;51.030;3.706;2022-10-17T03:48:38;16.30;99.90
56046;DHT22;41913;51.030;3.706;2022-10-17T03:51:14;16.30;99.90
56046;DHT22;41913;51.030;3.706;2022-10-17T03:53:40;16.30;99.90
56046;DHT22;41913;51.030;3.706;2022-10-17T03:56:13;16.30;99.90
56046;DHT22;41913;51.030;3.706;2022-10-17T03:58:42;16.30;99.90
56046;DHT22;41913;51.030;3.706;2022-10-17T04:01:09;16.30;99.90
56046;DHT22;41913;51.030;3.706;2022-10-17T04:08:39;16.40;99.90
56046;DHT22;41913;51.030;3.706;2022-10-17T04:11:15;16.40;99.90
56046;DHT22;41913;51.030;3.706;2022-10-17T04:13:40;16.40;99.90
56046;DHT22;41913;51.030;3.706;2022-10-17T04:16:10;16.40;99.90
56046;DHT22;41913;51.030;3.706;2022-10-17T04:18:40;16.40;99.90
56046;DHT22;41913;51.030;3.706;2022-10-17T04:26:23;16.40;99.90
56046;DHT22;41913;51.030;3.706;2022-10-17T04:31:19;16.40;99.90
56046;DHT22;41913;51.030;3.706;2022-10-17T04:33:53;16.40;99.90
56046;DHT22;41913;51.030;3.706;2022-10-17T04:36:19;16.30;99.90
56046;DHT22;41913;51.030;3.706;2022-10-17T04:38:59;16.30;99.90
56046;DHT22;41913;51.030;3.706;2022-10-17T04:41:30;16.20;99.90
56046;DHT22;41913;51.030;3.706;2022-10-17T04:46:27;16.30;99.90
56046;DHT22;41913;51.030;3.706;2022-10-17T04:48:52;16.30;99.90
56046;DHT22;41913;51.030;3.706;2022-10-17T04:51:20;16.30;99.90
56046;DHT22;41913;51.030;3.706;2022-10-17T04:53:49;16.30;99.90
56046;DHT22;41913;51.030;3.706;2022-10-17T04:56:15;16.30;99.90
56046;DHT22;41913;51.030;3.706;2022-10-17T04:58:45;16.40;99.90
56046;DHT22;41913;51.030;3.706;2022-10-17T05:03:55;16.50;99.90
56046;DHT22;41913;51.030;3.706;2022-10-17T05:06:23;16.60;99.90
56046;DHT22;41913;51.030;3.706;2022-10-17T05:11:25;16.60;99.90
56046;DHT22;41913;51.030;3.706;2022-10-17T05:16:19;16.60;99.90
56046;DHT22;41913;51.030;3.706;2022-10-17T05:21:21;16.60;99.90
56046;DHT22;41913;51.030;3.706;2022-10-17T05:26:22;16.70;99.90
56046;DHT22;41913;51.030;3.706;2022-10-17T05:28:49;16.60;99.90
56046;DHT22;41913;51.030;3.706;2022-10-17T05:31:19;16.70;99.90
56046;DHT22;41913;51.030;3.706;2022-10-17T05:33:48;16.80;99.90
56046;DHT22;41913;51.030;3.706;2022-10-17T05:36:15;16.80;99.90
56046;DHT22;41913;51.030;3.706;2022-10-17T05:38:42;16.80;99.90
56046;DHT22;41913;51.030;3.706;2022-10-17T05:41:09;16.80;99.90
56046;DHT22;41913;51.030;3.706;2022-10-17T05:46:04;17.00;99.90
56046;DHT22;41913;51.030;3.706;2022-10-17T05:50:59;17.10;99.90
56046;DHT22;41913;51.030;3.706;2022-10-17T05:53:29;17.20;99.90
56046;DHT22;41913;51.030;3.706;2022-10-17T05:55:55;17.30;99.90
56046;DHT22;41913;51.030;3.706;2022-10-17T05:58:21;17.40;99.90
56046;DHT22;41913;51.030;3.706;2022-10-17T06:00:47;17.30;99.90
56046;DHT22;41913;51.030;3.706;2022-10-17T06:03:12;17.20;99.90
56046;DHT22;41913;51.030;3.706;2022-10-17T06:05:38;17.20;99.90
56046;DHT22;41913;51.030;3.706;2022-10-17T06:08:03;17.10;99.90
56046;DHT22;41913;51.030;3.706;2022-10-17T06:10:29;17.10;99.90
56046;DHT22;41913;51.030;3.706;2022-10-17T06:12:55;17.20;99.90
56046;DHT22;41913;51.030;3.706;2022-10-17T06:15:21;17.20;99.90
56046;DHT22;41913;51.030;3.706;2022-10-17T06:17:47;17.30;99.90
56046;DHT22;41913;51.030;3.706;2022-10-17T06:20:12;17.50;99.90
56046;DHT22;41913;51.030;3.706;2022-10-17T06:22:39;17.60;99.90
56046;DHT22;41913;51.030;3.706;2022-10-17T06:25:05;17.90;99.90
56046;DHT22;41913;51.030;3.706;2022-10-17T06:27:30;18.00;99.90
56046;DHT22;41913;51.030;3.706;2022-10-17T06:29:57;18.00;99.90
56046;DHT22;41913;51.030;3.706;2022-10-17T06:32:24;17.90;99.90
56046;DHT22;41913;51.030;3.706;2022-10-17T06:34:50;18.00;99.90
56046;DHT22;41913;51.030;3.706;2022-10-17T06:37:18;17.90;99.90
56046;DHT22;41913;51.030;3.706;2022-10-17T06:39:44;18.00;99.90
56046;DHT22;41913;51.030;3.706;2022-10-17T06:42:10;17.90;99.90
56046;DHT22;41913;51.030;3.706;2022-10-17T06:44:38;17.80;99.90
56046;DHT22;41913;51.030;3.706;2022-10-17T06:47:05;17.80;99.90
56046;DHT22;41913;51.030;3.706;2022-10-17T06:49:32;17.60;99.90
56046;DHT22;41913;51.030;3.706;2022-10-17T06:51:59;17.60;99.90
56046;DHT22;41913;51.030;3.706;2022-10-17T06:54:27;17.60;99.90
56046;DHT22;41913;51.030;3.706;2022-10-17T06:56:53;17.50;99.90
56046;DHT22;41913;51.030;3.706;2022-10-17T06:59:20;17.60;99.90
56046;DHT22;41913;51.030;3.706;2022-10-17T07:01:47;17.70;99.90
56046;DHT22;41913;51.030;3.706;2022-10-17T07:04:18;17.80;99.90
56046;DHT22;41913;51.030;3.706;2022-10-17T07:06:46;17.80;99.90
56046;DHT22;41913;51.030;3.706;2022-10-17T07:09:11;17.60;99.90
56046;DHT22;41913;51.030;3.706;2022-10-17T07:11:39;17.40;99.90
56046;DHT22;41913;51.030;3.706;2022-10-17T07:14:06;17.40;99.90
56046;DHT22;41913;51.030;3.706;2022-10-17T07:16:32;17.40;99.90
56046;DHT22;41913;51.030;3.706;2022-10-17T07:18:59;17.50;99.90
56046;DHT22;41913;51.030;3.706;2022-10-17T07:21:24;17.50;99.90
56046;DHT22;41913;51.030;3.706;2022-10-17T07:23:50;17.50;99.90
56046;DHT22;41913;51.030;3.706;2022-10-17T07:26:17;17.40;99.90
56046;DHT22;41913;51.030;3.706;2022-10-17T07:28:45;17.30;99.90
56046;DHT22;41913;51.030;3.706;2022-10-17T07:31:13;17.20;99.90
56046;DHT22;41913;51.030;3.706;2022-10-17T07:33:40;17.20;99.90
56046;DHT22;41913;51.030;3.706;2022-10-17T07:36:06;17.20;99.90
56046;DHT22;41913;51.030;3.706;2022-10-17T07:38:35;17.20;99.90
56046;DHT22;41913;51.030;3.706;2022-10-17T07:43:30;17.20;99.90
56046;DHT22;41913;51.030;3.706;2022-10-17T07:45:57;17.40;99.90
56046;DHT22;41913;51.030;3.706;2022-10-17T07:48:24;17.30;99.90
56046;DHT22;41913;51.030;3.706;2022-10-17T07:50:51;17.20;99.90
56046;DHT22;41913;51.030;3.706;2022-10-17T07:53:17;17.10;99.90
56046;DHT22;41913;51.030;3.706;2022-10-17T07:55:44;17.10;99.90
56046;DHT22;41913;51.030;3.706;2022-10-17T07:58:12;17.10;99.90
56046;DHT22;41913;51.030;3.706;2022-10-17T08:00:38;17.10;99.90
56046;DHT22;41913;51.030;3.706;2022-10-17T08:03:04;17.10;99.90
56046;DHT22;41913;51.030;3.706;2022-10-17T08:07:59;17.10;99.90
56046;DHT22;41913;51.030;3.706;2022-10-17T08:10:25;17.10;99.90
56046;DHT22;41913;51.030;3.706;2022-10-17T08:12:54;17.00;99.90
56046;DHT22;41913;51.030;3.706;2022-10-17T08:15:20;17.00;99.90
56046;DHT22;41913;51.030;3.706;2022-10-17T08:17:46;17.00;99.90
56046;DHT22;41913;51.030;3.706;2022-10-17T08:20:14;16.90;99.90
56046;DHT22;41913;51.030;3.706;2022-10-17T08:25:10;16.90;99.90
56046;DHT22;41913;51.030;3.706;2022-10-17T08:27:35;17.00;99.90
56046;DHT22;41913;51.030;3.706;2022-10-17T08:30:01;17.10;99.90
56046;DHT22;41913;51.030;3.706;2022-10-17T08:32:28;17.20;99.90
56046;DHT22;41913;51.030;3.706;2022-10-17T08:34:54;17.10;99.90
56046;DHT22;41913;51.030;3.706;2022-10-17T08:37:23;17.20;99.90
56046;DHT22;41913;51.030;3.706;2022-10-17T08:39:49;17.40;99.90
56046;DHT22;41913;51.030;3.706;2022-10-17T08:47:37;17.90;99.90
56046;DHT22;41913;51.030;3.706;2022-10-17T08:55:40;17.80;99.90
56046;DHT22;41913;51.030;3.706;2022-10-17T08:58:19;17.80;99.90
56046;DHT22;41913;51.030;3.706;2022-10-17T09:06:41;18.00;99.90
56046;DHT22;41913;51.030;3.706;2022-10-17T09:09:18;18.10;99.90
56046;DHT22;41913;51.030;3.706;2022-10-17T09:11:49;18.10;99.90
56046;DHT22;41913;51.030;3.706;2022-10-17T09:21:57;18.00;99.90
56046;DHT22;41913;51.030;3.706;2022-10-17T09:24:34;18.10;99.90
56046;DHT22;41913;51.030;3.706;2022-10-17T09:27:04;18.10;99.90
56046;DHT22;41913;51.030;3.706;2022-10-17T09:29:32;18.20;99.90
56046;DHT22;41913;51.030;3.706;2022-10-17T09:32:32;18.30;99.90
56046;DHT22;41913;51.030;3.706;2022-10-17T09:34:52;18.30;99.90
56046;DHT22;41913;51.030;3.706;2022-10-17T09:37:19;18.40;99.90
56046;DHT22;41913;51.030;3.706;2022-10-17T09:39:46;18.50;99.90
56046;DHT22;41913;51.030;3.706;2022-10-17T09:42:14;18.60;99.90
56046;DHT22;41913;51.030;3.706;2022-10-17T09:44:46;18.80;99.90
56046;DHT22;41913;51.030;3.706;2022-10-17T09:47:17;19.00;99.90
56046;DHT22;41913;51.030;3.706;2022-10-17T09:49:45;18.90;99.90
56046;DHT22;41913;51.030;3.706;2022-10-17T09:52:33;18.80;99.90
56046;DHT22;41913;51.030;3.706;2022-10-17T09:55:00;19.00;99.90
56046;DHT22;41913;51.030;3.706;2022-10-17T09:57:28;19.00;99.90
56046;DHT22;41913;51.030;3.706;2022-10-17T10:00:47;19.00;99.90
56046;DHT22;41913;51.030;3.706;2022-10-17T10:05:39;19.00;99.90
56046;DHT22;41913;51.030;3.706;2022-10-17T10:08:16;18.90;99.90
56046;DHT22;41913;51.030;3.706;2022-10-17T10:10:43;18.80;99.90
56046;DHT22;41913;51.030;3.706;2022-10-17T10:15:42;19.00;99.90
56046;DHT22;41913;51.030;3.706;2022-10-17T10:21:11;19.50;99.90
56046;DHT22;41913;51.030;3.706;2022-10-17T10:23:40;19.70;99.90
56046;DHT22;41913;51.030;3.706;2022-10-17T10:26:17;20.10;99.90
56046;DHT22;41913;51.030;3.706;2022-10-17T10:28:49;20.50;99.90
56046;DHT22;41913;51.030;3.706;2022-10-17T10:31:15;20.80;99.90
56046;DHT22;41913;51.030;3.706;2022-10-17T10:33:43;21.10;99.90
56046;DHT22;41913;51.030;3.706;2022-10-17T10:36:09;21.30;99.90
56046;DHT22;41913;51.030;3.706;2022-10-17T10:41:09;21.30;99.90
56046;DHT22;41913;51.030;3.706;2022-10-17T10:43:43;21.40;99.90
56046;DHT22;41913;51.030;3.706;2022-10-17T10:46:17;21.50;99.90
56046;DHT22;41913;51.030;3.706;2022-10-17T10:48:51;21.40;99.90
56046;DHT22;41913;51.030;3.706;2022-10-17T10:51:18;21.50;99.90
56046;DHT22;41913;51.030;3.706;2022-10-17T10:53:58;21.70;99.90
56046;DHT22;41913;51.030;3.706;2022-10-17T10:56:32;21.90;99.90
56046;DHT22;41913;51.030;3.706;2022-10-17T10:59:05;22.10;99.90
56046;DHT22;41913;51.030;3.706;2022-10-17T11:01:36;22.10;99.90
56046;DHT22;41913;51.030;3.706;2022-10-17T11:04:11;22.10;99.90
56046;DHT22;41913;51.030;3.706;2022-10-17T11:06:42;22.20;99.90
56046;DHT22;41913;51.030;3.706;2022-10-17T11:09:23;22.10;99.90
56046;DHT22;41913;51.030;3.706;2022-10-17T11:12:10;22.10;99.90
56046;DHT22;41913;51.030;3.706;2022-10-17T11:14:40;22.10;99.90
56046;DHT22;41913;51.030;3.706;2022-10-17T11:20:13;21.80;99.90
56046;DHT22;41913;51.030;3.706;2022-10-17T11:22:47;21.80;99.90
56046;DHT22;41913;51.030;3.706;2022-10-17T11:25:19;21.70;99.90
56046;DHT22;41913;51.030;3.706;2022-10-17T11:27:46;21.50;99.90
56046;DHT22;41913;51.030;3.706;2022-10-17T11:30:14;21.40;99.90
56046;DHT22;41913;51.030;3.706;2022-10-17T11:32:55;21.40;99.90
56046;DHT22;41913;51.030;3.706;2022-10-17T11:35:25;21.50;99.90
56046;DHT22;41913;51.030;3.706;2022-10-17T11:37:59;21.40;99.90
56046;DHT22;41913;51.030;3.706;2022-10-17T11:40:33;21.30;99.90
56046;DHT22;41913;51.030;3.706;2022-10-17T11:43:00;21.20;99.90
56046;DHT22;41913;51.030;3.706;2022-10-17T11:45:28;21.30;99.90
56046;DHT22;41913;51.030;3.706;2022-10-17T11:48:00;21.40;99.90
56046;DHT22;41913;51.030;3.706;2022-10-17T11:55:28;21.20;99.90
56046;DHT22;41913;51.030;3.706;2022-10-17T12:18:46;21.00;99.90
56046;DHT22;41913;51.030;3.706;2022-10-17T12:21:13;21.00;99.90
56046;DHT22;41913;51.030;3.706;2022-10-17T12:23:41;21.10;99.90
56046;DHT22;41913;51.030;3.706;2022-10-17T12:26:24;21.30;99.90
56046;DHT22;41913;51.030;3.706;2022-10-17T12:28:51;21.40;99.90
56046;DHT22;41913;51.030;3.706;2022-10-17T12:34:02;21.40;99.90
56046;DHT22;41913;51.030;3.706;2022-10-17T12:44:50;21.40;99.90
56046;DHT22;41913;51.030;3.706;2022-10-17T12:52:20;21.30;99.90
56046;DHT22;41913;51.030;3.706;2022-10-17T12:54:51;21.30;99.90
56046;DHT22;41913;51.030;3.706;2022-10-17T12:57:21;21.40;99.90
56046;DHT22;41913;51.030;3.706;2022-10-17T12:59:50;21.30;99.90
56046;DHT22;41913;51.030;3.706;2022-10-17T13:02:19;21.30;99.90
56046;DHT22;41913;51.030;3.706;2022-10-17T13:04:45;21.40;99.90
56046;DHT22;41913;51.030;3.706;2022-10-17T13:07:17;21.40;99.90
56046;DHT22;41913;51.030;3.706;2022-10-17T13:09:46;21.50;99.90
56046;DHT22;41913;51.030;3.706;2022-10-17T13:12:13;21.60;99.90
56046;DHT22;41913;51.030;3.706;2022-10-17T13:14:40;21.70;99.90
56046;DHT22;41913;51.030;3.706;2022-10-17T13:17:18;21.60;99.90
56046;DHT22;41913;51.030;3.706;2022-10-17T13:19:51;21.50;99.90
56046;DHT22;41913;51.030;3.706;2022-10-17T13:22:18;21.60;99.90
56046;DHT22;41913;51.030;3.706;2022-10-17T13:24:51;21.50;99.90
56046;DHT22;41913;51.030;3.706;2022-10-17T13:27:35;21.60;99.90
56046;DHT22;41913;51.030;3.706;2022-10-17T13:30:19;21.60;99.90
56046;DHT22;41913;51.030;3.706;2022-10-17T13:35:15;21.70;99.90
56046;DHT22;41913;51.030;3.706;2022-10-17T13:37:47;21.80;99.90
56046;DHT22;41913;51.030;3.706;2022-10-17T13:40:20;21.60;99.90
56046;DHT22;41913;51.030;3.706;2022-10-17T13:42:47;21.50;99.90
56046;DHT22;41913;51.030;3.706;2022-10-17T13:47:49;21.70;99.90
56046;DHT22;41913;51.030;3.706;2022-10-17T13:50:24;21.60;99.90
56046;DHT22;41913;51.030;3.706;2022-10-17T13:53:04;21.70;99.90
56046;DHT22;41913;51.030;3.706;2022-10-17T13:55:31;21.80;99.90
56046;DHT22;41913;51.030;3.706;2022-10-17T13:58:18;21.70;99.90
56046;DHT22;41913;51.030;3.706;2022-10-17T14:00:44;21.70;99.90
56046;DHT22;41913;51.030;3.706;2022-10-17T14:03:12;21.60;99.90
56046;DHT22;41913;51.030;3.706;2022-10-17T14:08:25;21.40;99.90
56046;DHT22;41913;51.030;3.706;2022-10-17T14:10:51;21.40;99.90
56046;DHT22;41913;51.030;3.706;2022-10-17T14:13:23;21.60;99.90
56046;DHT22;41913;51.030;3.706;2022-10-17T14:15:50;21.60;99.90
56046;DHT22;41913;51.030;3.706;2022-10-17T14:18:20;21.60;99.90
56046;DHT22;41913;51.030;3.706;2022-10-17T14:20:48;21.40;99.90
56046;DHT22;41913;51.030;3.706;2022-10-17T14:28:36;21.40;99.90
56046;DHT22;41913;51.030;3.706;2022-10-17T14:31:17;21.40;99.90
56046;DHT22;41913;51.030;3.706;2022-10-17T14:33:44;21.50;99.90
56046;DHT22;41913;51.030;3.706;2022-10-17T14:36:10;21.50;99.90
56046;DHT22;41913;51.030;3.706;2022-10-17T14:38:37;21.70;99.90
56046;DHT22;41913;51.030;3.706;2022-10-17T14:43:31;21.50;99.90
56046;DHT22;41913;51.030;3.706;2022-10-17T14:45:59;21.40;99.90
56046;DHT22;41913;51.030;3.706;2022-10-17T14:48:25;21.30;99.90
56046;DHT22;41913;51.030;3.706;2022-10-17T14:56:00;21.10;99.90
56046;DHT22;41913;51.030;3.706;2022-10-17T14:58:29;21.10;99.90
56046;DHT22;41913;51.030;3.706;2022-10-17T15:00:55;21.10;99.90
56046;DHT22;41913;51.030;3.706;2022-10-17T15:03:21;21.00;99.90
56046;DHT22;41913;51.030;3.706;2022-10-17T15:05:48;20.70;99.90
56046;DHT22;41913;51.030;3.706;2022-10-17T15:08:16;20.70;99.90
56046;DHT22;41913;51.030;3.706;2022-10-17T15:10:44;20.80;99.90
56046;DHT22;41913;51.030;3.706;2022-10-17T15:13:10;20.70;99.90
56046;DHT22;41913;51.030;3.706;2022-10-17T15:15:36;20.70;99.90
56046;DHT22;41913;51.030;3.706;2022-10-17T15:18:02;20.60;99.90
56046;DHT22;41913;51.030;3.706;2022-10-17T15:20:28;20.60;99.90
56046;DHT22;41913;51.030;3.706;2022-10-17T15:22:58;20.60;99.90
56046;DHT22;41913;51.030;3.706;2022-10-17T15:25:25;20.60;99.90
56046;DHT22;41913;51.030;3.706;2022-10-17T15:27:51;20.60;99.90
56046;DHT22;41913;51.030;3.706;2022-10-17T15:30:27;20.60;99.90
56046;DHT22;41913;51.030;3.706;2022-10-17T15:32:55;20.60;99.90
56046;DHT22;41913;51.030;3.706;2022-10-17T15:35:22;20.50;99.90
56046;DHT22;41913;51.030;3.706;2022-10-17T15:37:49;20.50;99.90
56046;DHT22;41913;51.030;3.706;2022-10-17T15:40:22;20.50;99.90
56046;DHT22;41913;51.030;3.706;2022-10-17T15:42:49;20.40;99.90
56046;DHT22;41913;51.030;3.706;2022-10-17T15:45:17;20.40;99.90
56046;DHT22;41913;51.030;3.706;2022-10-17T15:47:49;20.40;99.90
56046;DHT22;41913;51.030;3.706;2022-10-17T15:50:16;20.40;99.90
56046;DHT22;41913;51.030;3.706;2022-10-17T15:52:43;20.40;99.90
56046;DHT22;41913;51.030;3.706;2022-10-17T15:55:09;20.40;99.90
56046;DHT22;41913;51.030;3.706;2022-10-17T15:57:36;20.30;99.90
56046;DHT22;41913;51.030;3.706;2022-10-17T16:00:09;20.30;99.90
56046;DHT22;41913;51.030;3.706;2022-10-17T16:02:36;20.30;99.90
56046;DHT22;41913;51.030;3.706;2022-10-17T16:05:08;20.20;99.90
56046;DHT22;41913;51.030;3.706;2022-10-17T16:07:34;20.20;99.90
56046;DHT22;41913;51.030;3.706;2022-10-17T16:10:03;20.10;99.90
56046;DHT22;41913;51.030;3.706;2022-10-17T16:12:29;20.00;99.90
56046;DHT22;41913;51.030;3.706;2022-10-17T16:14:58;20.00;99.90
56046;DHT22;41913;51.030;3.706;2022-10-17T16:17:23;19.90;99.90
56046;DHT22;41913;51.030;3.706;2022-10-17T16:19:51;19.90;99.90
56046;DHT22;41913;51.030;3.706;2022-10-17T16:22:28;19.80;99.90
56046;DHT22;41913;51.030;3.706;2022-10-17T16:24:58;19.80;99.90
56046;DHT22;41913;51.030;3.706;2022-10-17T16:27:34;19.80;99.90
56046;DHT22;41913;51.030;3.706;2022-10-17T16:30:02;19.70;99.90
56046;DHT22;41913;51.030;3.706;2022-10-17T16:32:29;19.60;99.90
56046;DHT22;41913;51.030;3.706;2022-10-17T16:34:55;19.60;99.90
56046;DHT22;41913;51.030;3.706;2022-10-17T16:37:21;19.50;99.90
56046;DHT22;41913;51.030;3.706;2022-10-17T16:39:47;19.50;99.90
56046;DHT22;41913;51.030;3.706;2022-10-17T16:42:20;19.40;99.90
56046;DHT22;41913;51.030;3.706;2022-10-17T16:44:47;19.30;99.90
56046;DHT22;41913;51.030;3.706;2022-10-17T16:47:13;19.20;99.90
56046;DHT22;41913;51.030;3.706;2022-10-17T16:49:40;19.20;99.90
56046;DHT22;41913;51.030;3.706;2022-10-17T16:52:07;19.20;99.90
56046;DHT22;41913;51.030;3.706;2022-10-17T16:54:33;19.10;99.90
56046;DHT22;41913;51.030;3.706;2022-10-17T16:56:59;19.00;99.90
56046;DHT22;41913;51.030;3.706;2022-10-17T16:59:28;18.90;99.90
56046;DHT22;41913;51.030;3.706;2022-10-17T17:01:55;18.90;99.90
56046;DHT22;41913;51.030;3.706;2022-10-17T17:04:21;18.70;99.90
56046;DHT22;41913;51.030;3.706;2022-10-17T17:06:47;18.70;99.90
56046;DHT22;41913;51.030;3.706;2022-10-17T17:09:14;18.60;99.90
56046;DHT22;41913;51.030;3.706;2022-10-17T17:11:40;18.50;99.90
56046;DHT22;41913;51.030;3.706;2022-10-17T17:16:36;18.40;99.90
56046;DHT22;41913;51.030;3.706;2022-10-17T17:19:05;18.40;99.90
56046;DHT22;41913;51.030;3.706;2022-10-17T17:21:34;18.40;99.90
56046;DHT22;41913;51.030;3.706;2022-10-17T17:24:09;18.30;99.90
56046;DHT22;41913;51.030;3.706;2022-10-17T17:26:35;18.30;99.90
56046;DHT22;41913;51.030;3.706;2022-10-17T17:31:30;18.40;99.90
56046;DHT22;41913;51.030;3.706;2022-10-17T17:33:58;18.40;99.90
56046;DHT22;41913;51.030;3.706;2022-10-17T17:36:28;18.30;99.90
56046;DHT22;41913;51.030;3.706;2022-10-17T17:41:26;18.20;99.90
56046;DHT22;41913;51.030;3.706;2022-10-17T17:46:21;18.20;99.90
56046;DHT22;41913;51.030;3.706;2022-10-17T17:48:48;18.30;99.90
56046;DHT22;41913;51.030;3.706;2022-10-17T17:51:15;18.20;99.90
56046;DHT22;41913;51.030;3.706;2022-10-17T17:53:41;18.10;99.90
56046;DHT22;41913;51.030;3.706;2022-10-17T17:56:10;18.10;99.90
56046;DHT22;41913;51.030;3.706;2022-10-17T17:58:42;18.10;99.90
56046;DHT22;41913;51.030;3.706;2022-10-17T18:01:17;18.10;99.90
56046;DHT22;41913;51.030;3.706;2022-10-17T18:03:45;18.10;99.90
56046;DHT22;41913;51.030;3.706;2022-10-17T18:06:18;18.00;99.90
56046;DHT22;41913;51.030;3.706;2022-10-17T18:08:51;18.00;99.90
56046;DHT22;41913;51.030;3.706;2022-10-17T18:11:17;18.10;99.90
56046;DHT22;41913;51.030;3.706;2022-10-17T18:13:44;18.20;99.90
56046;DHT22;41913;51.030;3.706;2022-10-17T18:16:11;18.10;99.90
56046;DHT22;41913;51.030;3.706;2022-10-17T18:18:43;18.10;99.90
56046;DHT22;41913;51.030;3.706;2022-10-17T18:21:10;18.10;99.90
56046;DHT22;41913;51.030;3.706;2022-10-17T18:26:08;18.10;99.90
56046;DHT22;41913;51.030;3.706;2022-10-17T18:28:35;18.00;99.90
56046;DHT22;41913;51.030;3.706;2022-10-17T18:31:05;18.10;99.90
56046;DHT22;41913;51.030;3.706;2022-10-17T18:33:31;18.10;99.90
56046;DHT22;41913;51.030;3.706;2022-10-17T18:36:02;18.00;99.90
56046;DHT22;41913;51.030;3.706;2022-10-17T18:43:33;18.00;99.90
56046;DHT22;41913;51.030;3.706;2022-10-17T18:46:09;17.90;99.90
56046;DHT22;41913;51.030;3.706;2022-10-17T18:48:37;17.90;99.90
56046;DHT22;41913;51.030;3.706;2022-10-17T18:51:05;17.90;99.90
56046;DHT22;41913;51.030;3.706;2022-10-17T18:53:35;17.90;99.90
56046;DHT22;41913;51.030;3.706;2022-10-17T18:56:03;17.90;99.90
56046;DHT22;41913;51.030;3.706;2022-10-17T18:58:28;17.90;99.90
56046;DHT22;41913;51.030;3.706;2022-10-17T19:01:00;17.90;99.90
56046;DHT22;41913;51.030;3.706;2022-10-17T19:03:25;17.80;99.90
56046;DHT22;41913;51.030;3.706;2022-10-17T19:05:51;17.80;99.90
56046;DHT22;41913;51.030;3.706;2022-10-17T19:08:17;17.80;99.90
56046;DHT22;41913;51.030;3.706;2022-10-17T19:10:43;17.60;99.90
56046;DHT22;41913;51.030;3.706;2022-10-17T19:13:09;17.70;99.90
56046;DHT22;41913;51.030;3.706;2022-10-17T19:15:38;17.70;99.90
56046;DHT22;41913;51.030;3.706;2022-10-17T19:18:04;17.70;99.90
56046;DHT22;41913;51.030;3.706;2022-10-17T19:20:32;17.70;99.90
56046;DHT22;41913;51.030;3.706;2022-10-17T19:23:01;17.70;99.90
56046;DHT22;41913;51.030;3.706;2022-10-17T19:25:28;17.70;99.90
56046;DHT22;41913;51.030;3.706;2022-10-17T19:27:55;17.70;99.90
56046;DHT22;41913;51.030;3.706;2022-10-17T19:30:20;17.70;99.90
56046;DHT22;41913;51.030;3.706;2022-10-17T19:32:49;17.60;99.90
56046;DHT22;41913;51.030;3.706;2022-10-17T19:35:16;17.60;99.90
56046;DHT22;41913;51.030;3.706;2022-10-17T19:37:42;17.50;99.90
56046;DHT22;41913;51.030;3.706;2022-10-17T19:40:09;17.40;99.90
56046;DHT22;41913;51.030;3.706;2022-10-17T19:42:35;17.40;99.90